createdAt,value
2022-08-31T00:00:30.855Z,98481.84
2022-08-31T00:03:20.216Z,98487.78
2022-08-31T00:05:50.170Z,98489.94
2022-08-31T00:08:19.160Z,98491.00
2022-08-31T00:11:00.247Z,98484.16
2022-08-31T00:13:30.509Z,98486.44
2022-08-31T00:16:05.585Z,98492.50
2022-08-31T00:18:41.682Z,98485.72
2022-08-31T00:21:11.587Z,98481.66
2022-08-31T00:23:44.987Z,98483.00
2022-08-31T00:26:15.898Z,98479.06
2022-08-31T00:28:46.664Z,98487.59
2022-08-31T00:31:20.500Z,98480.19
2022-08-31T00:33:56.536Z,98480.78
2022-08-31T00:36:28.998Z,98468.78
2022-08-31T00:39:03.178Z,98476.19
2022-08-31T00:41:48.324Z,98474.78
2022-08-31T00:44:24.674Z,98474.41
2022-08-31T00:46:56.656Z,98468.31
2022-08-31T00:49:53.769Z,98472.88
2022-08-31T00:52:50.050Z,98478.78
2022-08-31T00:55:27.404Z,98465.53
2022-08-31T00:58:02.892Z,98465.13
2022-08-31T01:00:33.043Z,98456.75
2022-08-31T01:03:07.462Z,98463.75
2022-08-31T01:05:44.196Z,98463.09
2022-08-31T01:08:18.483Z,98469.41
2022-08-31T01:10:51.848Z,98472.03
2022-08-31T01:13:31.590Z,98469.41
2022-08-31T01:16:07.543Z,98469.84
2022-08-31T01:18:46.551Z,98468.94
2022-08-31T01:21:27.055Z,98465.59
2022-08-31T01:24:16.252Z,98476.38
2022-08-31T01:26:49.584Z,98455.56
2022-08-31T01:29:33.830Z,98462.00
2022-08-31T01:32:13.988Z,98485.28
2022-08-31T01:34:50.478Z,98489.66
2022-08-31T01:37:19.978Z,98474.38
2022-08-31T01:40:00.837Z,98484.22
2022-08-31T01:42:42.534Z,98478.34
2022-08-31T01:45:21.518Z,98479.63
2022-08-31T01:47:50.500Z,98471.91
2022-08-31T01:50:33.512Z,98463.16
2022-08-31T01:53:09.127Z,98466.50
2022-08-31T01:55:40.717Z,98435.28
2022-08-31T01:58:20.794Z,98465.75
2022-08-31T02:01:33.765Z,98474.69
2022-08-31T02:04:07.775Z,98473.19
2022-08-31T02:06:39.287Z,98471.66
2022-08-31T02:09:11.842Z,98457.38
2022-08-31T02:11:54.412Z,98456.28
2022-08-31T02:14:31.175Z,98462.78
2022-08-31T02:17:15.208Z,98447.97
2022-08-31T02:19:45.678Z,98461.63
2022-08-31T02:22:22.322Z,98450.88
2022-08-31T02:24:52.762Z,98459.78
2022-08-31T02:27:25.394Z,98463.59
2022-08-31T02:29:56.808Z,98462.44
2022-08-31T02:32:29.202Z,98460.63
2022-08-31T02:35:02.245Z,98466.97
2022-08-31T02:37:31.481Z,98469.03
2022-08-31T02:40:10.992Z,98459.28
2022-08-31T02:42:53.002Z,98459.69
2022-08-31T02:45:29.230Z,98467.69
2022-08-31T02:48:17.236Z,98471.31
2022-08-31T02:50:56.352Z,98470.84
2022-08-31T02:53:31.267Z,98471.50
2022-08-31T02:56:09.855Z,98458.03
2022-08-31T02:58:42.864Z,98453.72
2022-08-31T03:01:17.296Z,98454.97
2022-08-31T03:04:01.604Z,98450.44
2022-08-31T03:06:35.510Z,98449.44
2022-08-31T03:09:15.637Z,98448.38
2022-08-31T03:11:50.297Z,98447.09
2022-08-31T03:14:21.430Z,98438.81
2022-08-31T03:16:53.264Z,98456.03
2022-08-31T03:19:26.109Z,98446.03
2022-08-31T03:21:57.887Z,98457.22
2022-08-31T03:24:31.302Z,98462.13
2022-08-31T03:27:02.160Z,98459.31
2022-08-31T03:29:45.220Z,98471.66
2022-08-31T03:32:22.404Z,98476.09
2022-08-31T03:35:03.604Z,98477.38
2022-08-31T03:37:34.801Z,98479.50
2022-08-31T03:40:09.874Z,98485.81
2022-08-31T03:42:53.060Z,98480.97
2022-08-31T03:45:52.421Z,98479.72
2022-08-31T03:48:24.908Z,98477.25
2022-08-31T03:51:07.341Z,98471.03
2022-08-31T03:53:39.895Z,98465.75
2022-08-31T03:56:09.575Z,98470.50
2022-08-31T03:58:45.169Z,98471.66
2022-08-31T04:01:36.879Z,98475.38
2022-08-31T04:04:29.449Z,98467.16
2022-08-31T04:07:02.676Z,98463.63
2022-08-31T04:09:58.189Z,98466.28
2022-08-31T04:13:08.522Z,98471.66
2022-08-31T04:16:05.951Z,98463.53
2022-08-31T04:19:18.739Z,98470.41
2022-08-31T04:22:05.059Z,98473.41
2022-08-31T04:24:44.546Z,98471.31
2022-08-31T04:27:17.053Z,98462.41
2022-08-31T04:29:57.403Z,98466.59
2022-08-31T04:32:33.960Z,98461.38
2022-08-31T04:37:54.285Z,98460.09
2022-08-31T04:40:25.979Z,98465.94
2022-08-31T04:42:58.491Z,98459.28
2022-08-31T04:45:29.341Z,98461.56
2022-08-31T04:48:00.989Z,98469.13
2022-08-31T04:50:42.456Z,98469.69
2022-08-31T04:56:09.822Z,98476.25
2022-08-31T04:58:40.994Z,98466.06
2022-08-31T05:01:19.161Z,98471.44
2022-08-31T05:04:13.603Z,98473.19
2022-08-31T05:06:58.607Z,98472.47
2022-08-31T05:09:34.092Z,98474.13
2022-08-31T05:12:15.668Z,98474.88
2022-08-31T05:14:50.952Z,98474.63
2022-08-31T05:17:39.196Z,98479.34
2022-08-31T05:20:09.707Z,98470.72
2022-08-31T05:22:48.659Z,98476.97
2022-08-31T05:25:24.640Z,98475.72
2022-08-31T05:27:59.845Z,98482.31
2022-08-31T05:30:37.311Z,98477.06
2022-08-31T05:33:15.907Z,98472.94
2022-08-31T05:35:53.686Z,98482.97
2022-08-31T05:38:23.755Z,98484.69
2022-08-31T05:40:56.166Z,98480.69
2022-08-31T05:43:32.304Z,98487.84
2022-08-31T05:46:10.486Z,98481.69
2022-08-31T05:48:54.800Z,98492.22
2022-08-31T05:51:25.941Z,98491.69
2022-08-31T05:53:55.587Z,98478.75
2022-08-31T05:56:39.792Z,98488.13
2022-08-31T05:59:10.634Z,98478.72
2022-08-31T06:01:51.086Z,98486.47
2022-08-31T06:04:36.957Z,98487.41
2022-08-31T06:07:10.529Z,98484.97
2022-08-31T06:09:56.266Z,98481.16
2022-08-31T06:12:33.776Z,98483.47
2022-08-31T06:15:11.511Z,98480.66
2022-08-31T06:17:45.603Z,98471.81
2022-08-31T06:20:22.064Z,98476.97
2022-08-31T06:23:03.411Z,98476.41
2022-08-31T06:26:03.961Z,98478.38
2022-08-31T06:28:39.105Z,98475.03
2022-08-31T06:31:19.089Z,98472.41
2022-08-31T06:33:57.551Z,98468.16
2022-08-31T06:36:47.768Z,98464.13
2022-08-31T06:39:45.773Z,98462.44
2022-08-31T06:42:31.585Z,98464.41
2022-08-31T06:45:40.042Z,98475.53
2022-08-31T06:48:53.810Z,98467.34
2022-08-31T06:51:33.086Z,98470.31
2022-08-31T06:54:28.039Z,98463.63
2022-08-31T06:57:20.146Z,98458.75
2022-08-31T07:00:21.688Z,98464.69
2022-08-31T07:03:39.016Z,98454.22
2022-08-31T07:06:20.537Z,98449.56
2022-08-31T07:09:07.484Z,98448.84
2022-08-31T07:11:45.083Z,98438.97
2022-08-31T07:14:19.738Z,98456.13
2022-08-31T07:16:51.036Z,98445.94
2022-08-31T07:19:40.114Z,98440.03
2022-08-31T07:22:20.479Z,98446.88
2022-08-31T07:24:59.354Z,98438.06
2022-08-31T07:27:43.720Z,98449.97
2022-08-31T07:30:19.318Z,98431.63
2022-08-31T07:32:50.619Z,98444.09
2022-08-31T07:35:37.719Z,98433.84
2022-08-31T07:38:52.495Z,98426.81
2022-08-31T07:41:43.467Z,98414.31
2022-08-31T07:44:14.820Z,98429.56
2022-08-31T07:46:53.085Z,98435.13
2022-08-31T07:49:28.698Z,98431.31
2022-08-31T07:52:32.084Z,98432.00
2022-08-31T07:55:34.558Z,98421.63
2022-08-31T07:58:09.272Z,98429.78
2022-08-31T08:00:41.353Z,98432.41
2022-08-31T08:03:15.207Z,98424.81
2022-08-31T08:06:11.334Z,98422.75
2022-08-31T08:09:22.249Z,98426.16
2022-08-31T08:12:12.905Z,98421.50
2022-08-31T08:15:05.415Z,98364.59
2022-08-31T08:18:02.132Z,98422.28
2022-08-31T08:20:39.154Z,98411.25
2022-08-31T08:23:26.809Z,98414.09
2022-08-31T08:26:23.139Z,98411.78
2022-08-31T08:29:07.207Z,98415.91
2022-08-31T08:31:45.549Z,98425.59
2022-08-31T08:34:21.224Z,98416.81
2022-08-31T08:37:01.024Z,98413.28
2022-08-31T08:39:36.546Z,98408.34
2022-08-31T08:42:15.864Z,98413.06
2022-08-31T08:44:54.850Z,98417.66
2022-08-31T08:47:38.324Z,98422.47
2022-08-31T08:50:21.127Z,98414.06
2022-08-31T08:52:53.268Z,98420.56
2022-08-31T08:55:39.469Z,98419.06
2022-08-31T08:58:13.575Z,98406.06
2022-08-31T09:00:47.939Z,98417.09
2022-08-31T09:03:49.064Z,98417.16
2022-08-31T09:07:12.408Z,98416.34
2022-08-31T09:10:08.093Z,98409.88
2022-08-31T09:13:15.218Z,98413.56
2022-08-31T09:15:51.625Z,98417.63
2022-08-31T09:18:40.049Z,98415.16
2022-08-31T09:21:45.485Z,98403.47
2022-08-31T09:24:23.379Z,98404.28
2022-08-31T09:27:40.836Z,98400.66
2022-08-31T09:30:25.185Z,98397.47
2022-08-31T09:33:01.437Z,98401.47
2022-08-31T09:35:44.816Z,98395.44
2022-08-31T09:38:32.552Z,98394.63
2022-08-31T09:41:08.136Z,98395.03
2022-08-31T09:43:44.112Z,98381.28
2022-08-31T09:46:33.147Z,98386.53
2022-08-31T09:49:05.403Z,98377.25
2022-08-31T09:51:47.192Z,98386.09
2022-08-31T09:54:35.210Z,98378.84
2022-08-31T09:57:11.537Z,98374.41
2022-08-31T09:59:56.250Z,98369.13
2022-08-31T10:02:50.811Z,98365.94
2022-08-31T10:06:05.437Z,98363.91
2022-08-31T10:08:58.634Z,98352.97
2022-08-31T10:11:32.598Z,98355.78
2022-08-31T10:14:24.025Z,98359.44
2022-08-31T10:17:03.553Z,98358.63
2022-08-31T10:20:26.262Z,98349.75
2022-08-31T10:23:13.275Z,98363.88
2022-08-31T10:25:55.268Z,98353.41
2022-08-31T10:28:53.466Z,98353.00
2022-08-31T10:31:48.803Z,98355.44
2022-08-31T10:34:56.727Z,98347.75
2022-08-31T10:37:36.075Z,98333.22
2022-08-31T10:40:18.786Z,98329.97
2022-08-31T10:43:25.575Z,98338.44
2022-08-31T10:45:59.203Z,98337.25
2022-08-31T10:48:28.961Z,98345.34
2022-08-31T10:51:18.478Z,98340.91
2022-08-31T10:54:23.308Z,98341.31
2022-08-31T10:57:37.948Z,98343.31
2022-08-31T11:00:52.489Z,98345.31
2022-08-31T11:03:50.477Z,98342.88
2022-08-31T11:06:54.755Z,98340.88
2022-08-31T11:09:41.995Z,98336.41
2022-08-31T11:12:19.627Z,98338.44
2022-08-31T11:15:27.527Z,98335.59
2022-08-31T11:18:49.191Z,98337.63
2022-08-31T11:21:45.873Z,98337.22
2022-08-31T11:24:51.489Z,98337.97
2022-08-31T11:27:39.370Z,98339.91
2022-08-31T11:30:41.238Z,98348.34
2022-08-31T11:33:21.381Z,98343.81
2022-08-31T11:36:07.017Z,98351.84
2022-08-31T11:39:21.175Z,98355.16
2022-08-31T11:42:01.608Z,98356.19
2022-08-31T11:44:52.598Z,98358.56
2022-08-31T11:47:51.178Z,98364.66
2022-08-31T11:50:28.362Z,98360.91
2022-08-31T11:53:02.286Z,98366.25
2022-08-31T11:55:53.559Z,98366.63
2022-08-31T11:58:39.177Z,98363.47
2022-08-31T12:01:51.640Z,98377.78
2022-08-31T12:05:07.661Z,98369.31
2022-08-31T12:07:53.364Z,98394.50
2022-08-31T12:10:52.687Z,98384.94
2022-08-31T12:13:59.173Z,98380.59
2022-08-31T12:17:02.853Z,98394.50
2022-08-31T12:23:39.853Z,98397.78
2022-08-31T12:26:52.554Z,98398.13
2022-08-31T12:29:37.223Z,98398.78
2022-08-31T12:32:52.048Z,98393.38
2022-08-31T12:35:31.392Z,98384.41
2022-08-31T12:38:19.809Z,98377.19
2022-08-31T12:40:59.110Z,98373.56
2022-08-31T12:43:33.173Z,98364.03
2022-08-31T12:46:43.142Z,98362.72
2022-08-31T12:49:32.173Z,98371.06
2022-08-31T12:52:38.727Z,98357.00
2022-08-31T12:55:45.182Z,98360.31
2022-08-31T12:59:11.158Z,98356.94
2022-08-31T13:01:56.044Z,98346.41
2022-08-31T13:04:31.064Z,98346.72
2022-08-31T13:07:44.380Z,98346.69
2022-08-31T13:10:27.269Z,98332.50
2022-08-31T13:13:11.904Z,98324.25
2022-08-31T13:15:50.622Z,98323.50
2022-08-31T13:18:32.034Z,98317.00
2022-08-31T13:21:13.245Z,98309.66
2022-08-31T13:23:53.255Z,98321.44
2022-08-31T13:26:39.032Z,98313.53
2022-08-31T13:29:20.146Z,98326.09
2022-08-31T13:31:57.535Z,98316.91
2022-08-31T13:34:27.017Z,98319.66
2022-08-31T13:37:06.649Z,98289.31
2022-08-31T13:39:45.007Z,98311.28
2022-08-31T13:42:41.649Z,98314.38
2022-08-31T13:46:05.526Z,98312.66
2022-08-31T13:48:41.653Z,98311.03
2022-08-31T13:51:20.605Z,98314.34
2022-08-31T13:54:10.425Z,98311.19
2022-08-31T13:57:02.930Z,98317.25
2022-08-31T13:59:41.271Z,98314.00
2022-08-31T14:02:36.939Z,98315.59
2022-08-31T14:05:19.281Z,98320.81
2022-08-31T14:08:04.372Z,98304.94
2022-08-31T14:10:41.741Z,98323.13
2022-08-31T14:13:30.350Z,98320.53
2022-08-31T14:16:07.518Z,98319.97
2022-08-31T14:18:51.244Z,98310.47
2022-08-31T14:21:30.074Z,98322.03
2022-08-31T14:24:11.207Z,98315.53
2022-08-31T14:26:47.604Z,98289.22
2022-08-31T14:29:22.466Z,98307.41
2022-08-31T14:31:56.138Z,98304.59
2022-08-31T14:34:41.360Z,98297.09
2022-08-31T14:37:23.237Z,98297.78
2022-08-31T14:40:06.581Z,98284.00
2022-08-31T14:42:42.515Z,98290.88
2022-08-31T14:45:22.405Z,98296.03
2022-08-31T14:47:54.311Z,98269.41
2022-08-31T14:50:27.210Z,98255.72
2022-08-31T14:52:58.747Z,98283.91
2022-08-31T14:55:33.498Z,98288.63
2022-08-31T14:58:11.977Z,98279.06
2022-08-31T15:00:55.445Z,98280.47
2022-08-31T15:03:39.637Z,98270.56
2022-08-31T15:06:15.922Z,98255.38
2022-08-31T15:08:48.617Z,98253.47
2022-08-31T15:11:30.044Z,98255.63
2022-08-31T15:14:17.005Z,98250.03
2022-08-31T15:16:49.634Z,98243.13
2022-08-31T15:19:29.872Z,98253.66
2022-08-31T15:22:03.186Z,98256.31
2022-08-31T15:27:22.955Z,98270.63
2022-08-31T15:30:11.685Z,98252.22
2022-08-31T15:32:43.743Z,98248.25
2022-08-31T15:35:26.270Z,98254.78
2022-08-31T15:38:02.632Z,98255.06
2022-08-31T15:40:38.966Z,98258.19
2022-08-31T15:43:26.949Z,98256.66
2022-08-31T15:46:13.794Z,98258.28
2022-08-31T15:48:46.063Z,98260.66
2022-08-31T15:51:29.039Z,98248.19
2022-08-31T15:54:22.076Z,98249.38
2022-08-31T15:57:12.411Z,98247.72
2022-08-31T15:59:46.873Z,98249.28
2022-08-31T16:02:24.267Z,98260.97
2022-08-31T16:05:00.507Z,98260.16
2022-08-31T16:07:29.997Z,98253.94
2022-08-31T16:10:03.356Z,98256.59
2022-08-31T16:12:43.116Z,98248.44
2022-08-31T16:15:24.870Z,98263.78
2022-08-31T16:18:09.778Z,98264.66
2022-08-31T16:20:49.937Z,98262.63
2022-08-31T16:23:22.091Z,98251.66
2022-08-31T16:25:53.135Z,98268.13
2022-08-31T16:28:24.500Z,98264.44
2022-08-31T16:31:09.281Z,98270.84
2022-08-31T16:34:02.435Z,98267.50
2022-08-31T16:36:34.753Z,98255.34
2022-08-31T16:39:12.626Z,98260.16
2022-08-31T16:41:57.335Z,98270.25
2022-08-31T16:47:27.142Z,98272.22
2022-08-31T16:50:02.878Z,98276.19
2022-08-31T16:52:37.303Z,98279.09
2022-08-31T16:55:07.182Z,98284.97
2022-08-31T16:57:38.154Z,98279.69
2022-08-31T17:00:08.699Z,98276.50
2022-08-31T17:02:49.367Z,98276.00
2022-08-31T17:05:28.359Z,98266.56
2022-08-31T17:08:00.773Z,98272.88
2022-08-31T17:10:32.061Z,98272.47
2022-08-31T17:13:08.715Z,98273.50
2022-08-31T17:15:39.969Z,98276.81
2022-08-31T17:18:30.364Z,98274.66
2022-08-31T17:21:02.430Z,98274.28
2022-08-31T17:23:38.646Z,98267.19
2022-08-31T17:26:15.499Z,98277.19
2022-08-31T17:29:03.447Z,98291.59
2022-08-31T17:31:38.987Z,98292.66
2022-08-31T17:34:10.180Z,98292.56
2022-08-31T17:36:52.920Z,98290.56
2022-08-31T17:39:29.826Z,98292.66
2022-08-31T17:42:08.908Z,98289.38
2022-08-31T17:44:52.647Z,98298.19
2022-08-31T17:47:33.946Z,98303.84
2022-08-31T17:50:13.100Z,98308.25
2022-08-31T17:52:45.013Z,98311.72
2022-08-31T17:55:22.654Z,98316.81
2022-08-31T17:57:56.034Z,98323.38
2022-08-31T18:00:30.717Z,98323.69
2022-08-31T18:03:16.290Z,98331.81
2022-08-31T18:05:53.977Z,98332.09
2022-08-31T18:08:25.966Z,98340.03
2022-08-31T18:10:59.943Z,98337.69
2022-08-31T18:13:44.548Z,98343.97
2022-08-31T18:16:22.328Z,98330.09
2022-08-31T18:18:54.091Z,98343.50
2022-08-31T18:21:33.346Z,98357.09
2022-08-31T18:24:08.664Z,98344.19
2022-08-31T18:26:47.569Z,98340.09
2022-08-31T18:29:25.263Z,98358.00
2022-08-31T18:31:59.434Z,98354.25
2022-08-31T18:34:47.675Z,98351.69
2022-08-31T18:37:24.893Z,98353.38
2022-08-31T18:40:13.969Z,98348.31
2022-08-31T18:43:06.606Z,98354.13
2022-08-31T18:45:52.914Z,98353.88
2022-08-31T18:48:53.439Z,98361.50
2022-08-31T18:51:27.126Z,98365.63
2022-08-31T18:54:01.852Z,98381.06
2022-08-31T18:56:33.890Z,98364.97
2022-08-31T18:59:18.516Z,98345.69
2022-08-31T19:01:53.732Z,98365.47
2022-08-31T19:04:26.685Z,98368.63
2022-08-31T19:07:10.938Z,98377.44
2022-08-31T19:09:47.432Z,98369.00
2022-08-31T19:12:21.862Z,98373.81
2022-08-31T19:14:56.449Z,98370.72
2022-08-31T19:17:36.199Z,98367.22
2022-08-31T19:20:11.576Z,98367.13
2022-08-31T19:22:49.656Z,98368.44
2022-08-31T19:25:31.665Z,98362.75
2022-08-31T19:28:12.655Z,98376.41
2022-08-31T19:30:49.217Z,98378.81
2022-08-31T19:33:25.691Z,98378.34
2022-08-31T19:36:24.419Z,98361.88
2022-08-31T19:38:58.882Z,98373.47
2022-08-31T19:41:49.370Z,98375.22
2022-08-31T19:44:25.986Z,98372.47
2022-08-31T19:47:07.637Z,98383.13
2022-08-31T19:49:46.771Z,98385.13
2022-08-31T19:52:20.452Z,98381.69
2022-08-31T19:55:09.110Z,98385.50
2022-08-31T19:57:46.161Z,98394.03
2022-08-31T20:00:17.691Z,98401.63
2022-08-31T20:02:55.145Z,98402.25
2022-08-31T20:05:26.917Z,98400.31
2022-08-31T20:08:07.023Z,98408.81
2022-08-31T20:10:35.972Z,98419.19
2022-08-31T20:13:12.040Z,98411.97
2022-08-31T20:18:32.709Z,98408.84
2022-08-31T20:21:09.226Z,98405.75
2022-08-31T20:23:52.679Z,98407.56
2022-08-31T20:26:46.363Z,98408.66
2022-08-31T20:29:33.305Z,98407.31
2022-08-31T20:32:14.767Z,98415.78
2022-08-31T20:34:47.253Z,98400.31
2022-08-31T20:37:31.473Z,98417.50
2022-08-31T20:40:03.392Z,98424.00
2022-08-31T20:42:38.180Z,98419.22
2022-08-31T20:45:08.439Z,98415.31
2022-08-31T20:47:56.242Z,98412.19
2022-08-31T20:50:32.507Z,98413.63
2022-08-31T20:53:09.388Z,98435.34
2022-08-31T20:55:48.986Z,98425.75
2022-08-31T20:58:22.104Z,98429.53
2022-08-31T21:00:54.263Z,98434.16
2022-08-31T21:03:26.504Z,98433.63
2022-08-31T21:06:13.011Z,98443.81
2022-08-31T21:08:43.739Z,98433.97
2022-08-31T21:11:17.223Z,98452.13
2022-08-31T21:13:52.974Z,98436.41
2022-08-31T21:16:24.265Z,98435.69
2022-08-31T21:18:56.377Z,98449.00
2022-08-31T21:21:33.279Z,98447.72
2022-08-31T21:24:09.763Z,98443.53
2022-08-31T21:26:52.917Z,98447.53
2022-08-31T21:29:24.446Z,98449.78
2022-08-31T21:32:01.298Z,98452.13
2022-08-31T21:34:34.023Z,98459.44
2022-08-31T21:37:05.225Z,98460.63
2022-08-31T21:39:36.119Z,98455.91
2022-08-31T21:42:13.743Z,98449.34
2022-08-31T21:44:51.065Z,98462.97
2022-08-31T21:47:21.658Z,98451.03
2022-08-31T21:50:00.523Z,98462.16
2022-08-31T21:52:44.430Z,98469.38
2022-08-31T21:55:23.526Z,98453.03
2022-08-31T21:57:58.393Z,98461.88
2022-08-31T22:00:30.255Z,98455.47
2022-08-31T22:03:06.699Z,98462.88
2022-08-31T22:05:46.213Z,98453.03
2022-08-31T22:08:17.673Z,98447.41
2022-08-31T22:11:02.704Z,98449.31
2022-08-31T22:13:34.022Z,98455.84
2022-08-31T22:16:18.805Z,98453.66
2022-08-31T22:19:02.190Z,98462.00
2022-08-31T22:21:40.386Z,98458.75
2022-08-31T22:24:13.097Z,98464.88
2022-08-31T22:27:04.058Z,98463.16
2022-08-31T22:29:44.762Z,98473.78
2022-08-31T22:32:25.161Z,98473.44
2022-08-31T22:34:56.748Z,98482.03
2022-08-31T22:37:38.237Z,98481.31
2022-08-31T22:40:23.958Z,98483.22
2022-08-31T22:43:05.602Z,98476.78
2022-08-31T22:45:38.159Z,98479.03
2022-08-31T22:48:08.648Z,98476.91
2022-08-31T22:50:45.523Z,98470.41
2022-08-31T22:53:16.779Z,98474.25
2022-08-31T22:55:50.764Z,98453.00
2022-08-31T22:58:22.543Z,98482.94
2022-08-31T23:00:56.783Z,98478.88
2022-08-31T23:03:36.035Z,98478.69
2022-08-31T23:06:08.827Z,98472.84
2022-08-31T23:08:49.133Z,98472.16
2022-08-31T23:11:26.718Z,98476.44
2022-08-31T23:14:09.561Z,98473.09
2022-08-31T23:16:47.042Z,98464.56
2022-08-31T23:19:24.043Z,98484.00
2022-08-31T23:21:59.810Z,98469.63
2022-08-31T23:24:42.254Z,98466.56
2022-08-31T23:27:13.304Z,98462.41
2022-08-31T23:29:52.730Z,98452.75
2022-08-31T23:32:29.793Z,98456.53
2022-08-31T23:35:03.428Z,98405.09
2022-08-31T23:37:42.530Z,98457.16
2022-08-31T23:40:37.337Z,98450.72
2022-08-31T23:43:15.796Z,98464.75
2022-08-31T23:45:50.296Z,98451.25
2022-08-31T23:48:33.317Z,98458.34
2022-08-31T23:51:05.517Z,98426.88
2022-08-31T23:53:42.701Z,98446.59
2022-08-31T23:56:22.696Z,98448.50
2022-08-31T23:58:59.831Z,98448.50
